createdAt,value
2018-03-08T00:00:37.872Z,3.4
2018-03-08T00:01:27.931Z,3.4
2018-03-08T00:02:18.268Z,3.4
2018-03-08T00:03:08.328Z,3.4
2018-03-08T00:03:58.412Z,3.4
2018-03-08T00:04:48.179Z,3.3
2018-03-08T00:05:38.501Z,3.3
2018-03-08T00:06:28.580Z,3.3
2018-03-08T00:07:18.622Z,3.3
2018-03-08T00:08:08.393Z,3.3
2018-03-08T00:08:58.452Z,3.3
2018-03-08T00:09:48.522Z,3.2
2018-03-08T00:10:38.865Z,3.3
2018-03-08T00:11:28.642Z,3.2
2018-03-08T00:12:18.701Z,3.2
2018-03-08T00:13:09.027Z,3.2
2018-03-08T00:13:58.817Z,3.1
2018-03-08T00:14:48.964Z,3.1
2018-03-08T00:15:38.936Z,3.1
2018-03-08T00:16:28.989Z,3.1
2018-03-08T00:17:19.049Z,3.1
2018-03-08T00:18:09.438Z,3.1
2018-03-08T00:18:59.437Z,3.1
2018-03-08T00:19:49.512Z,3.1
2018-03-08T00:20:39.281Z,3.1
2018-03-08T00:21:29.336Z,3
2018-03-08T00:22:19.397Z,3.1
2018-03-08T00:23:09.759Z,3
2018-03-08T00:23:59.531Z,3
2018-03-08T00:24:49.856Z,3
2018-03-08T00:25:39.939Z,3
2018-03-08T00:26:29.968Z,2.9
2018-03-08T00:27:19.847Z,2.9
2018-03-08T00:28:09.809Z,2.9
2018-03-08T00:29:00.169Z,2.9
2018-03-08T00:29:49.945Z,2.9
2018-03-08T00:30:39.994Z,2.9
2018-03-08T00:31:30.124Z,2.9
2018-03-08T00:32:20.392Z,2.9
2018-03-08T00:33:10.159Z,2.9
2018-03-08T00:34:00.272Z,2.9
2018-03-08T00:34:50.084Z,2.9
2018-03-08T00:35:40.390Z,2.8
2018-03-08T00:36:30.191Z,2.8
2018-03-08T00:37:20.172Z,2.8
2018-03-08T00:38:10.526Z,2.8
2018-03-08T00:39:00.856Z,2.8
2018-03-08T00:39:50.906Z,2.8
2018-03-08T00:40:40.696Z,2.8
2018-03-08T00:41:30.751Z,2.8
2018-03-08T00:42:20.809Z,2.8
2018-03-08T00:43:11.166Z,2.8
2018-03-08T00:44:00.928Z,2.8
2018-03-08T00:44:51.076Z,2.8
2018-03-08T00:45:41.031Z,2.8
2018-03-08T00:46:31.101Z,2.8
2018-03-08T00:47:21.434Z,2.8
2018-03-08T00:48:11.296Z,2.8
2018-03-08T00:49:01.289Z,2.8
2018-03-08T00:49:51.660Z,2.7
2018-03-08T00:50:41.381Z,2.7
2018-03-08T00:51:31.464Z,2.7
2018-03-08T00:52:21.859Z,2.7
2018-03-08T00:53:11.566Z,2.7
2018-03-08T00:54:01.720Z,2.7
2018-03-08T00:54:51.682Z,2.7
2018-03-08T00:55:42.041Z,2.7
2018-03-08T00:56:31.513Z,2.7
2018-03-08T00:57:21.569Z,2.7
2018-03-08T00:58:11.633Z,2.7
2018-03-08T00:59:01.978Z,2.7
2018-03-08T00:59:52.334Z,2.7
2018-03-08T01:00:42.392Z,2.7
2018-03-08T01:01:32.151Z,2.7
2018-03-08T01:02:22.482Z,2.7
2018-03-08T01:03:12.277Z,2.7
2018-03-08T01:04:02.612Z,2.6
2018-03-08T01:04:52.727Z,2.7
2018-03-08T01:05:42.445Z,2.7
2018-03-08T01:06:32.302Z,2.7
2018-03-08T01:07:22.611Z,2.7
2018-03-08T01:08:12.621Z,2.7
2018-03-08T01:09:02.684Z,2.6
2018-03-08T01:09:53.017Z,2.7
2018-03-08T01:10:43.118Z,2.6
2018-03-08T01:11:32.855Z,2.7
2018-03-08T01:12:23.201Z,2.6
2018-03-08T01:13:13.240Z,2.7
2018-03-08T01:14:03.112Z,2.6
2018-03-08T01:14:53.371Z,2.7
2018-03-08T01:15:43.417Z,2.6
2018-03-08T01:16:33.006Z,2.7
2018-03-08T01:17:23.584Z,2.7
2018-03-08T01:18:13.039Z,2.7
2018-03-08T01:19:03.385Z,2.7
2018-03-08T01:19:53.728Z,2.7
2018-03-08T01:20:43.784Z,2.7
2018-03-08T01:21:33.558Z,2.7
2018-03-08T01:22:23.411Z,2.7
2018-03-08T01:23:13.664Z,2.7
2018-03-08T01:24:03.501Z,2.7
2018-03-08T01:24:54.085Z,2.7
2018-03-08T01:25:43.861Z,2.7
2018-03-08T01:26:33.906Z,2.7
2018-03-08T01:27:24.264Z,2.7
2018-03-08T01:28:14.326Z,2.7
2018-03-08T01:29:04.369Z,2.7
2018-03-08T01:29:54.144Z,2.7
2018-03-08T01:30:43.999Z,2.7
2018-03-08T01:31:34.550Z,2.7
2018-03-08T01:32:24.619Z,2.7
2018-03-08T01:33:14.668Z,2.7
2018-03-08T01:34:04.432Z,2.7
2018-03-08T01:34:54.213Z,2.7
2018-03-08T01:35:44.838Z,2.7
2018-03-08T01:36:34.610Z,2.7
2018-03-08T01:37:24.956Z,2.7
2018-03-08T01:38:15.018Z,2.7
2018-03-08T01:39:04.580Z,2.7
2018-03-08T01:39:54.835Z,2.7
2018-03-08T01:40:45.189Z,2.7
2018-03-08T01:41:34.760Z,2.7
2018-03-08T01:42:25.012Z,2.7
2018-03-08T01:43:15.066Z,2.7
2018-03-08T01:44:05.422Z,2.7
2018-03-08T01:44:55.494Z,2.7
2018-03-08T01:45:45.591Z,2.8
2018-03-08T01:46:35.322Z,2.8
2018-03-08T01:47:25.084Z,2.8
2018-03-08T01:48:15.435Z,2.7
2018-03-08T01:49:05.767Z,2.8
2018-03-08T01:49:55.849Z,2.7
2018-03-08T01:50:45.912Z,2.8
2018-03-08T01:51:35.951Z,2.8
2018-03-08T01:52:25.726Z,2.8
2018-03-08T01:53:15.777Z,2.7
2018-03-08T01:54:05.645Z,2.8
2018-03-08T01:54:55.892Z,2.8
2018-03-08T01:55:46.256Z,2.8
2018-03-08T01:56:36.007Z,2.8
2018-03-08T01:57:26.093Z,2.8
2018-03-08T01:58:16.162Z,2.8
2018-03-08T01:59:06.245Z,2.7
2018-03-08T01:59:56.044Z,2.8
2018-03-08T02:00:46.593Z,2.8
2018-03-08T02:01:36.641Z,2.8
2018-03-08T02:02:26.216Z,2.8
2018-03-08T02:03:16.493Z,2.8
2018-03-08T02:04:06.397Z,2.8
2018-03-08T02:04:56.884Z,2.8
2018-03-08T02:05:46.654Z,2.8
2018-03-08T02:06:36.773Z,2.8
2018-03-08T02:07:26.773Z,2.8
2018-03-08T02:08:16.836Z,2.8
2018-03-08T02:09:06.893Z,2.8
2018-03-08T02:09:57.228Z,2.8
2018-03-08T02:10:47.007Z,2.8
2018-03-08T02:11:37.075Z,2.8
2018-03-08T02:12:27.136Z,2.8
2018-03-08T02:13:17.182Z,2.8
2018-03-08T02:14:07.516Z,2.8
2018-03-08T02:14:57.295Z,2.8
2018-03-08T02:15:47.635Z,2.8
2018-03-08T02:16:37.265Z,2.8
2018-03-08T02:17:27.566Z,2.8
2018-03-08T02:18:17.529Z,2.8
2018-03-08T02:19:07.605Z,2.8
2018-03-08T02:19:57.446Z,2.8
2018-03-08T02:20:47.706Z,2.8
2018-03-08T02:21:38.055Z,2.8
2018-03-08T02:22:27.829Z,2.8
2018-03-08T02:23:17.677Z,2.8
2018-03-08T02:24:07.735Z,2.8
2018-03-08T02:24:57.999Z,2.8
2018-03-08T02:25:48.352Z,2.8
2018-03-08T02:26:38.156Z,2.8
2018-03-08T02:27:28.175Z,2.8
2018-03-08T02:28:18.234Z,2.8
2018-03-08T02:29:08.300Z,2.8
2018-03-08T02:29:58.652Z,2.8
2018-03-08T02:30:48.417Z,2.8
2018-03-08T02:31:38.267Z,2.8
2018-03-08T02:32:28.821Z,2.8
2018-03-08T02:33:18.868Z,2.8
2018-03-08T02:34:08.649Z,2.8
2018-03-08T02:34:58.472Z,2.8
2018-03-08T02:35:49.058Z,2.8
2018-03-08T02:36:38.812Z,2.8
2018-03-08T02:37:28.889Z,2.8
2018-03-08T02:38:18.944Z,2.8
2018-03-08T02:39:08.999Z,2.8
2018-03-08T02:39:59.408Z,2.8
2018-03-08T02:40:48.904Z,2.8
2018-03-08T02:41:39.177Z,2.8
2018-03-08T02:42:28.944Z,2.8
2018-03-08T02:43:19.001Z,2.9
2018-03-08T02:44:09.349Z,2.8
2018-03-08T02:44:59.698Z,2.8
2018-03-08T02:45:49.477Z,2.8
2018-03-08T02:46:39.810Z,2.8
2018-03-08T02:47:29.594Z,2.8
2018-03-08T02:48:19.926Z,2.8
2018-03-08T02:49:09.746Z,2.9
2018-03-08T02:50:00.114Z,2.8
2018-03-08T02:50:50.120Z,2.9
2018-03-08T02:51:40.172Z,2.8
2018-03-08T02:52:29.979Z,2.8
2018-03-08T02:53:20.267Z,2.9
2018-03-08T02:54:10.096Z,2.9
2018-03-08T02:55:00.198Z,2.9
2018-03-08T02:55:50.256Z,2.8
2018-03-08T02:56:40.221Z,2.9
2018-03-08T02:57:30.274Z,2.9
2018-03-08T02:58:20.431Z,2.9
2018-03-08T02:59:10.699Z,2.9
2018-03-08T03:00:00.449Z,2.9
2018-03-08T03:00:50.805Z,2.9
2018-03-08T03:01:40.573Z,2.9
2018-03-08T03:02:30.647Z,2.9
2018-03-08T03:03:20.687Z,2.9
2018-03-08T03:04:11.039Z,2.9
2018-03-08T03:05:01.099Z,2.9
2018-03-08T03:05:50.858Z,2.9
2018-03-08T03:06:40.975Z,2.9
2018-03-08T03:07:30.980Z,2.9
2018-03-08T03:08:21.039Z,2.9
2018-03-08T03:09:11.142Z,2.9
2018-03-08T03:10:01.182Z,2.9
2018-03-08T03:10:50.935Z,2.9
2018-03-08T03:11:41.546Z,2.9
2018-03-08T03:12:31.342Z,2.9
2018-03-08T03:13:21.681Z,2.9
2018-03-08T03:14:11.448Z,2.9
2018-03-08T03:15:01.522Z,2.9
2018-03-08T03:15:51.859Z,2.9
2018-03-08T03:16:41.646Z,2.9
2018-03-08T03:17:31.685Z,2.9
2018-03-08T03:18:22.018Z,2.9
2018-03-08T03:19:12.081Z,2.9
2018-03-08T03:20:02.150Z,2.9
2018-03-08T03:20:51.914Z,2.9
2018-03-08T03:21:41.690Z,2.9
2018-03-08T03:22:32.304Z,2.9
2018-03-08T03:23:22.367Z,2.9
2018-03-08T03:24:12.422Z,2.9
2018-03-08T03:25:02.197Z,2.9
2018-03-08T03:25:52.358Z,2.9
2018-03-08T03:26:42.616Z,2.9
2018-03-08T03:27:32.380Z,2.9
2018-03-08T03:28:22.721Z,2.9
2018-03-08T03:29:12.503Z,2.9
2018-03-08T03:30:02.865Z,2.9
2018-03-08T03:30:52.616Z,2.9
2018-03-08T03:31:42.472Z,2.9
2018-03-08T03:32:33.028Z,2.9
2018-03-08T03:33:23.073Z,2.9
2018-03-08T03:34:12.853Z,2.9
2018-03-08T03:35:03.208Z,2.9
2018-03-08T03:35:53.255Z,2.9
2018-03-08T03:36:43.107Z,2.9
2018-03-08T03:37:33.386Z,2.9
2018-03-08T03:38:23.145Z,2.9
2018-03-08T03:39:13.475Z,2.9
2018-03-08T03:40:02.973Z,2.9
2018-03-08T03:40:53.315Z,2.9
2018-03-08T03:41:43.378Z,2.9
2018-03-08T03:42:33.715Z,2.9
2018-03-08T03:43:23.792Z,2.9
2018-03-08T03:44:13.550Z,2.9
2018-03-08T03:45:03.604Z,2.9
2018-03-08T03:45:53.960Z,2.9
2018-03-08T03:46:44.002Z,2.9
2018-03-08T03:47:34.065Z,2.9
2018-03-08T03:48:24.115Z,2.9
2018-03-08T03:49:14.190Z,2.9
2018-03-08T03:50:04.257Z,2.9
2018-03-08T03:50:54.295Z,2.9
2018-03-08T03:51:44.369Z,2.9
2018-03-08T03:52:34.412Z,2.9
2018-03-08T03:53:24.474Z,2.9
2018-03-08T03:54:14.237Z,2.9
2018-03-08T03:55:04.587Z,2.9
2018-03-08T03:55:54.371Z,2.9
2018-03-08T03:56:44.136Z,2.9
2018-03-08T03:57:34.777Z,2.9
2018-03-08T03:58:24.535Z,2.9
2018-03-08T03:59:14.620Z,2.9
2018-03-08T04:00:04.942Z,2.9
2018-03-08T04:00:54.517Z,2.9
2018-03-08T04:01:44.574Z,2.9
2018-03-08T04:02:35.120Z,2.9
2018-03-08T04:03:24.895Z,2.9
2018-03-08T04:04:15.047Z,2.9
2018-03-08T04:05:05.029Z,2.9
2018-03-08T04:05:55.065Z,2.9
2018-03-08T04:06:45.426Z,2.9
2018-03-08T04:07:35.488Z,2.9
2018-03-08T04:08:25.248Z,2.9
2018-03-08T04:09:15.591Z,2.9
2018-03-08T04:10:05.458Z,2.9
2018-03-08T04:10:55.709Z,2.9
2018-03-08T04:11:45.759Z,2.9
2018-03-08T04:12:35.812Z,2.9
2018-03-08T04:13:25.591Z,2.9
2018-03-08T04:14:15.643Z,2.9
2018-03-08T04:15:05.711Z,2.9
2018-03-08T04:15:55.769Z,2.9
2018-03-08T04:16:45.816Z,2.9
2018-03-08T04:17:35.890Z,2.9
2018-03-08T04:18:25.931Z,2.9
2018-03-08T04:19:15.998Z,2.9
2018-03-08T04:20:06.349Z,2.9
2018-03-08T04:20:56.134Z,2.9
2018-03-08T04:21:45.896Z,2.9
2018-03-08T04:22:36.316Z,2.9
2018-03-08T04:23:26.113Z,2.9
2018-03-08T04:24:16.353Z,2.9
2018-03-08T04:25:06.408Z,2.9
2018-03-08T04:25:56.471Z,2.9
2018-03-08T04:26:46.243Z,2.9
2018-03-08T04:27:36.861Z,2.9
2018-03-08T04:28:26.945Z,2.9
2018-03-08T04:29:16.704Z,2.9
2018-03-08T04:30:06.853Z,2.9
2018-03-08T04:30:56.875Z,2.9
2018-03-08T04:31:47.151Z,2.9
2018-03-08T04:32:36.935Z,2.9
2018-03-08T04:33:27.296Z,2.9
2018-03-08T04:34:17.340Z,2.9
2018-03-08T04:35:07.378Z,2.9
2018-03-08T04:35:57.185Z,2.9
2018-03-08T04:36:47.228Z,2.9
2018-03-08T04:37:37.568Z,2.9
2018-03-08T04:38:27.633Z,2.9
2018-03-08T04:39:17.692Z,2.9
2018-03-08T04:40:07.735Z,2.9
2018-03-08T04:40:57.322Z,2.9
2018-03-08T04:41:47.676Z,2.9
2018-03-08T04:42:37.924Z,2.9
2018-03-08T04:43:27.689Z,2.9
2018-03-08T04:44:17.765Z,2.9
2018-03-08T04:45:08.087Z,2.9
2018-03-08T04:45:57.877Z,2.9
2018-03-08T04:46:47.939Z,2.9
2018-03-08T04:47:38.263Z,2.9
2018-03-08T04:48:28.332Z,2.9
2018-03-08T04:49:17.895Z,2.9
2018-03-08T04:50:08.175Z,2.9
2018-03-08T04:50:58.517Z,2.9
2018-03-08T04:51:48.002Z,2.9
2018-03-08T04:52:38.332Z,2.9
2018-03-08T04:53:28.669Z,2.9
2018-03-08T04:54:18.262Z,2.9
2018-03-08T04:55:08.519Z,2.9
2018-03-08T04:55:58.561Z,2.9
2018-03-08T04:56:48.917Z,2.9
2018-03-08T04:57:38.966Z,2.9
2018-03-08T04:58:28.751Z,2.9
2018-03-08T04:59:18.592Z,2.9
2018-03-08T05:00:09.126Z,2.9
2018-03-08T05:00:59.217Z,2.9
2018-03-08T05:01:48.976Z,2.9
2018-03-08T05:02:39.028Z,2.9
2018-03-08T05:03:29.179Z,2.9
2018-03-08T05:04:19.147Z,2.9
2018-03-08T05:05:09.502Z,2.9
2018-03-08T05:05:59.557Z,2.9
2018-03-08T05:06:49.598Z,2.9
2018-03-08T05:07:39.650Z,2.9
2018-03-08T05:08:29.425Z,2.9
2018-03-08T05:09:19.498Z,2.9
2018-03-08T05:10:09.660Z,2.9
2018-03-08T05:10:59.329Z,2.9
2018-03-08T05:11:49.956Z,2.9
2018-03-08T05:12:39.731Z,2.9
2018-03-08T05:13:30.060Z,2.9
2018-03-08T05:14:20.151Z,2.9
2018-03-08T05:15:10.191Z,2.9
2018-03-08T05:16:00.247Z,2.9
2018-03-08T05:16:50.105Z,3
2018-03-08T05:17:40.365Z,2.9
2018-03-08T05:18:30.150Z,3
2018-03-08T05:19:20.187Z,2.9
2018-03-08T05:20:10.543Z,3
2018-03-08T05:21:00.596Z,3
2018-03-08T05:21:50.652Z,3
2018-03-08T05:22:40.221Z,3
2018-03-08T05:23:30.572Z,3
2018-03-08T05:24:20.595Z,3
2018-03-08T05:25:10.599Z,3
2018-03-08T05:26:00.961Z,3
2018-03-08T05:26:50.716Z,3
2018-03-08T05:27:40.765Z,3
2018-03-08T05:28:31.124Z,3
2018-03-08T05:29:20.906Z,3
2018-03-08T05:30:10.952Z,3.1
2018-03-08T05:31:01.309Z,3.1
2018-03-08T05:31:51.358Z,3.1
2018-03-08T05:32:41.121Z,3.1
2018-03-08T05:33:31.472Z,3.1
2018-03-08T05:34:21.239Z,3.1
2018-03-08T05:35:11.575Z,3.1
2018-03-08T05:36:01.637Z,3.1
2018-03-08T05:36:51.699Z,3.1
2018-03-08T05:37:41.753Z,3.1
2018-03-08T05:38:31.532Z,3.1
2018-03-08T05:39:21.590Z,3.1
2018-03-08T05:40:11.932Z,3.1
2018-03-08T05:41:02.004Z,3.1
2018-03-08T05:41:51.768Z,3.1
2018-03-08T05:42:42.113Z,3.2
2018-03-08T05:43:32.169Z,3.2
2018-03-08T05:44:21.942Z,3.2
2018-03-08T05:45:12.285Z,3.2
2018-03-08T05:46:02.327Z,3.2
2018-03-08T05:46:52.115Z,3.2
2018-03-08T05:47:42.462Z,3.3
2018-03-08T05:48:32.022Z,3.3
2018-03-08T05:49:22.300Z,3.3
2018-03-08T05:50:12.632Z,3.3
2018-03-08T05:51:02.420Z,3.3
2018-03-08T05:51:52.456Z,3.4
2018-03-08T05:52:42.324Z,3.4
2018-03-08T05:53:32.849Z,3.4
2018-03-08T05:54:22.694Z,3.4
2018-03-08T05:55:12.683Z,3.4
2018-03-08T05:56:02.744Z,3.4
2018-03-08T05:56:52.802Z,3.4
2018-03-08T05:57:43.135Z,3.5
2018-03-08T05:58:32.802Z,3.5
2018-03-08T05:59:23.265Z,3.6
2018-03-08T06:00:13.337Z,3.6
2018-03-08T06:01:03.109Z,3.6
2018-03-08T06:01:52.867Z,3.7
2018-03-08T06:02:43.201Z,3.7
2018-03-08T06:03:33.267Z,3.8
2018-03-08T06:04:23.630Z,3.8
2018-03-08T06:05:13.469Z,3.9
2018-03-08T06:06:03.444Z,3.9
2018-03-08T06:06:53.494Z,4.1
2018-03-08T06:07:43.560Z,4.1
2018-03-08T06:08:33.606Z,4.3
2018-03-08T06:09:23.953Z,4.3
2018-03-08T06:10:13.733Z,4.4
2018-03-08T06:11:04.098Z,4.6
2018-03-08T06:11:53.842Z,4.7
2018-03-08T06:12:43.909Z,4.8
2018-03-08T06:13:34.070Z,4.9
2018-03-08T06:14:24.016Z,4.9
2018-03-08T06:15:14.360Z,5
2018-03-08T06:16:04.429Z,5.1
2018-03-08T06:16:54.487Z,5.1
2018-03-08T06:17:44.551Z,5.2
2018-03-08T06:18:34.593Z,5.2
2018-03-08T06:19:24.387Z,5.3
2018-03-08T06:20:14.728Z,5.3
2018-03-08T06:21:04.503Z,5.4
2018-03-08T06:21:54.263Z,5.4
2018-03-08T06:22:44.618Z,5.5
2018-03-08T06:23:34.965Z,5.6
2018-03-08T06:24:25.014Z,5.7
2018-03-08T06:25:15.060Z,5.8
2018-03-08T06:26:05.155Z,5.8
2018-03-08T06:26:55.180Z,5.9
2018-03-08T06:27:45.228Z,6
2018-03-08T06:28:35.300Z,6.1
2018-03-08T06:29:25.344Z,6.1
2018-03-08T06:30:15.414Z,6.3
2018-03-08T06:31:05.187Z,6.3
2018-03-08T06:31:55.519Z,6.4
2018-03-08T06:32:45.580Z,6.4
2018-03-08T06:33:35.650Z,6.5
2018-03-08T06:34:25.734Z,6.6
2018-03-08T06:35:15.475Z,6.6
2018-03-08T06:36:05.822Z,6.7
2018-03-08T06:36:55.873Z,6.7
2018-03-08T06:37:45.930Z,6.8
2018-03-08T06:38:35.982Z,6.8
2018-03-08T18:44:55.391Z,7.1
2018-03-08T18:45:45.617Z,7.1
2018-03-08T18:46:35.372Z,7.1
2018-03-08T18:47:25.617Z,7.1
2018-03-08T18:48:15.811Z,7.1
2018-03-08T18:49:05.831Z,7.1
2018-03-08T18:49:55.875Z,7
2018-03-08T18:50:46.045Z,7
2018-03-08T18:51:36.008Z,7
2018-03-08T18:52:26.339Z,7
2018-03-08T18:53:16.391Z,6.9
2018-03-08T18:54:06.172Z,6.9
2018-03-08T18:54:56.244Z,6.9
2018-03-08T18:55:46.563Z,6.9
2018-03-08T18:56:36.632Z,6.9
2018-03-08T18:57:26.406Z,6.9
2018-03-08T18:58:16.746Z,6.8
2018-03-08T18:59:06.525Z,6.8
2018-03-08T18:59:56.291Z,6.8
2018-03-08T19:00:46.653Z,6.8
2018-03-08T19:01:36.994Z,6.8
2018-03-08T19:02:26.564Z,6.8
2018-03-08T19:03:16.618Z,6.8
2018-03-08T19:04:06.590Z,6.7
2018-03-08T19:04:56.918Z,6.7
2018-03-08T19:05:47.301Z,6.7
2018-03-08T19:06:37.051Z,6.7
2018-03-08T19:07:27.413Z,6.7
2018-03-08T19:08:17.158Z,6.6
2018-03-08T19:09:06.936Z,6.6
2018-03-08T19:09:57.275Z,6.6
2018-03-08T19:10:47.132Z,6.6
2018-03-08T19:11:37.666Z,6.6
2018-03-08T19:12:27.468Z,6.6
2018-03-08T19:13:17.798Z,6.6
2018-03-08T19:14:07.370Z,6.6
2018-03-08T19:14:57.961Z,6.5
2018-03-08T19:15:47.473Z,6.5
2018-03-08T19:16:37.808Z,6.5
2018-03-08T19:17:27.803Z,6.5
2018-03-08T19:18:17.755Z,6.4
2018-03-08T19:19:07.728Z,6.4
2018-03-08T19:19:58.275Z,6.4
2018-03-08T19:20:48.307Z,6.4
2018-03-08T19:21:38.093Z,6.4
2018-03-08T19:22:28.155Z,6.4
2018-03-08T19:23:18.110Z,6.4
2018-03-08T19:24:08.270Z,6.4
2018-03-08T19:24:58.622Z,6.4
2018-03-08T19:25:48.391Z,6.3
2018-03-08T19:26:37.952Z,6.4
2018-03-08T19:27:28.510Z,6.3
2018-03-08T19:28:18.841Z,6.3
2018-03-08T19:29:08.889Z,6.3
2018-03-08T19:29:58.947Z,6.3
2018-03-08T19:30:48.727Z,6.3
2018-03-08T19:31:38.782Z,6.3
2018-03-08T19:32:29.139Z,6.3
2018-03-08T19:33:18.905Z,6.3
2018-03-08T19:34:08.975Z,6.3
2018-03-08T19:34:59.013Z,6.3
2018-03-08T19:35:48.792Z,6.2
2018-03-08T19:36:39.505Z,6.2
2018-03-08T19:37:29.512Z,6.2
2018-03-08T19:38:19.552Z,6.2
2018-03-08T19:39:09.582Z,6.2
2018-03-08T19:39:59.636Z,6.2
2018-03-08T19:40:49.426Z,6.2
2018-03-08T19:41:39.476Z,6.2
2018-03-08T19:42:29.806Z,6.1
2018-03-08T19:43:19.597Z,6.1
2018-03-08T19:44:09.259Z,6.1
2018-03-08T19:44:59.699Z,6.1
2018-03-08T19:45:49.484Z,6.1
2018-03-08T19:46:39.826Z,6.1
2018-03-08T19:47:30.194Z,6
2018-03-08T19:48:19.753Z,6
2018-03-08T19:49:10.314Z,6
2018-03-08T19:50:00.398Z,6
2018-03-08T19:50:50.133Z,5.9
2018-03-08T19:51:40.180Z,5.9
2018-03-08T19:52:30.244Z,5.9
2018-03-08T19:53:20.569Z,5.9
2018-03-08T19:54:09.867Z,5.9
2018-03-08T19:55:00.134Z,5.9
2018-03-08T19:55:50.466Z,5.9
2018-03-08T19:56:40.533Z,5.8
2018-03-08T19:57:30.301Z,5.8
2018-03-08T19:58:20.956Z,5.8
2018-03-08T19:59:10.413Z,5.8
2018-03-08T20:00:01.073Z,5.8
2018-03-08T20:00:50.534Z,5.8
2018-03-08T20:01:40.985Z,5.7
2018-03-08T20:02:31.222Z,5.7
2018-03-08T20:03:20.706Z,5.8
2018-03-08T20:04:11.395Z,5.7
2018-03-08T20:05:01.381Z,5.7
2018-03-08T20:05:51.452Z,5.6
2018-03-08T20:06:41.220Z,5.6
2018-03-08T20:07:31.301Z,5.6
2018-03-08T20:08:21.624Z,5.6
2018-03-08T20:09:11.701Z,5.6
2018-03-08T20:10:01.735Z,5.6
2018-03-08T20:10:51.518Z,5.6
2018-03-08T20:11:41.865Z,5.5
2018-03-08T20:12:31.908Z,5.5
2018-03-08T20:13:21.685Z,5.5
2018-03-08T20:14:11.742Z,5.5
2018-03-08T20:15:02.102Z,5.4
2018-03-08T20:15:52.133Z,5.4
2018-03-08T20:16:42.205Z,5.4
2018-03-08T20:17:32.247Z,5.4
2018-03-08T20:18:22.313Z,5.4
2018-03-08T20:19:12.091Z,5.4
2018-03-08T20:20:02.487Z,5.4
2018-03-08T20:20:52.496Z,5.4
2018-03-08T20:21:41.682Z,5.3
2018-03-08T20:22:32.334Z,5.3
2018-03-08T20:23:22.673Z,5.3
2018-03-08T20:24:12.426Z,5.3
2018-03-08T20:25:02.297Z,5.3
2018-03-08T20:25:52.544Z,5.3
2018-03-08T20:26:42.623Z,5.3
2018-03-08T20:27:32.955Z,5.2
2018-03-08T20:28:22.729Z,5.3
2018-03-08T20:29:12.792Z,5.2
2018-03-08T20:30:02.870Z,5.2
2018-03-08T20:30:52.708Z,5.2
2018-03-08T20:31:43.330Z,5.2
2018-03-08T20:32:33.321Z,5.1
2018-03-08T20:33:23.081Z,5.1
2018-03-08T20:34:13.140Z,5.1
2018-03-08T20:35:03.489Z,5.1
2018-03-08T20:35:53.527Z,5.1
2018-03-08T20:36:43.586Z,5.1
2018-03-08T20:37:33.361Z,5.1
2018-03-08T20:38:23.721Z,5.1
2018-03-08T20:39:13.509Z,5
2018-03-08T20:40:03.266Z,5
2018-03-08T20:40:53.308Z,5
2018-03-08T20:41:43.660Z,5
2018-03-08T20:42:34.025Z,5
2018-03-08T20:43:23.776Z,4.9
2018-03-08T20:44:13.883Z,4.9
2018-03-08T20:45:04.183Z,4.9
2018-03-08T20:45:54.012Z,4.9
2018-03-08T20:46:43.717Z,4.9
2018-03-08T20:47:34.077Z,4.9
2018-03-08T20:48:24.121Z,4.9
2018-03-08T20:49:14.074Z,4.9
2018-03-08T20:50:03.957Z,4.8
2018-03-08T20:50:54.567Z,4.9
2018-03-08T20:51:44.348Z,4.8
2018-03-08T20:52:34.692Z,4.8
2018-03-08T20:53:24.174Z,4.8
2018-03-08T20:54:14.542Z,4.8
2018-03-08T20:55:04.875Z,4.8
2018-03-08T20:55:54.934Z,4.8
2018-03-08T20:56:44.787Z,4.8
2018-03-08T20:57:34.561Z,4.8
2018-03-08T20:58:25.132Z,4.8
2018-03-08T20:59:14.876Z,4.8
2018-03-08T21:00:05.229Z,4.7
2018-03-08T21:00:55.262Z,4.8
2018-03-08T21:01:44.764Z,4.7
2018-03-08T21:02:35.104Z,4.7
2018-03-08T21:03:25.272Z,4.7
2018-03-08T21:04:15.514Z,4.7
2018-03-08T21:05:05.292Z,4.7
2018-03-08T21:05:55.647Z,4.6
2018-03-08T21:06:45.772Z,4.6
2018-03-08T21:07:35.457Z,4.6
2018-03-08T21:08:25.796Z,4.6
2018-03-08T21:09:15.576Z,4.6
2018-03-08T21:10:05.425Z,4.6
2018-03-08T21:10:55.689Z,4.6
2018-03-08T21:11:45.458Z,4.6
2018-03-08T21:12:36.081Z,4.6
2018-03-08T21:13:25.846Z,4.6
2018-03-08T21:14:15.908Z,4.6
2018-03-08T21:15:05.989Z,4.6
2018-03-08T21:15:55.745Z,4.6
2018-03-08T21:16:46.086Z,4.6
2018-03-08T21:17:36.148Z,4.6
2018-03-08T21:18:26.518Z,4.6
2018-03-08T21:19:16.530Z,4.6
2018-03-08T21:20:06.593Z,4.6
2018-03-08T21:20:56.651Z,4.5
2018-03-08T21:21:46.423Z,4.6
2018-03-08T21:22:36.765Z,4.5
2018-03-08T21:23:26.838Z,4.5
2018-03-08T21:24:16.886Z,4.5
2018-03-08T21:25:07.006Z,4.5
2018-03-08T21:25:56.998Z,4.5
2018-03-08T21:26:47.073Z,4.5
2018-03-08T21:27:37.126Z,4.5
2018-03-08T21:28:27.179Z,4.5
2018-03-08T21:29:17.248Z,4.5
2018-03-08T21:30:07.016Z,4.4
2018-03-08T21:30:57.350Z,4.5
2018-03-08T21:31:47.406Z,4.4
2018-03-08T21:32:37.459Z,4.5
2018-03-08T21:33:27.528Z,4.5
2018-03-08T21:34:17.598Z,4.5
2018-03-08T21:35:07.642Z,4.5
2018-03-08T21:35:57.438Z,4.5
2018-03-08T21:36:47.755Z,4.4
2018-03-08T21:37:37.810Z,4.4
2018-03-08T21:38:27.648Z,4.5
2018-03-08T21:39:17.935Z,4.4
2018-03-08T21:40:07.994Z,4.4
2018-03-08T21:40:58.040Z,4.5
2018-03-08T21:41:48.249Z,4.5
2018-03-08T21:42:38.159Z,4.5
2018-03-08T21:43:27.947Z,4.5
2018-03-08T21:44:18.287Z,4.5
2018-03-08T21:45:08.059Z,4.5
2018-03-08T21:45:58.414Z,4.5
2018-03-08T21:46:48.178Z,4.5
2018-03-08T21:47:38.245Z,4.5
2018-03-08T21:48:28.629Z,4.5
2018-03-08T21:49:18.625Z,4.5
2018-03-08T21:50:08.746Z,4.5
2018-03-08T21:50:58.809Z,4.5
2018-03-08T21:51:48.824Z,4.5
2018-03-08T21:52:38.859Z,4.5
2018-03-08T21:53:28.913Z,4.5
2018-03-08T21:54:18.695Z,4.5
2018-03-08T21:55:09.037Z,4.5
2018-03-08T21:55:59.130Z,4.5
2018-03-08T21:56:49.152Z,4.5
2018-03-08T21:57:38.921Z,4.5
2018-03-08T21:58:29.004Z,4.5
2018-03-08T21:59:19.043Z,4.5
2018-03-08T22:00:09.404Z,4.6
2018-03-08T22:00:59.437Z,4.5
2018-03-08T22:01:49.490Z,4.5
2018-03-08T22:02:39.281Z,4.5
2018-03-08T22:03:29.322Z,4.5
2018-03-08T22:04:19.664Z,4.5
2018-03-08T22:05:09.456Z,4.6
2018-03-08T22:05:59.806Z,4.5
2018-03-08T22:06:49.573Z,4.6
2018-03-08T22:07:39.940Z,4.5
2018-03-08T22:08:29.961Z,4.6
2018-03-08T22:09:20.018Z,4.5
2018-03-08T22:10:09.504Z,4.6
2018-03-08T22:10:59.848Z,4.6
2018-03-08T22:11:50.230Z,4.6
2018-03-08T22:12:40.246Z,4.6
2018-03-08T22:13:30.300Z,4.6
2018-03-08T22:14:20.353Z,4.6
2018-03-08T22:15:10.413Z,4.6
2018-03-08T22:16:00.475Z,4.5
2018-03-08T22:16:50.528Z,4.6
2018-03-08T22:17:40.308Z,4.6
2018-03-08T22:18:30.642Z,4.6
2018-03-08T22:19:20.701Z,4.6
2018-03-08T22:20:10.485Z,4.6
2018-03-08T22:21:00.829Z,4.6
2018-03-08T22:21:50.935Z,4.6
2018-03-08T22:22:40.968Z,4.6
2018-03-08T22:23:30.717Z,4.6
2018-03-08T22:24:20.762Z,4.6
2018-03-08T22:25:11.125Z,4.6
2018-03-08T22:26:01.177Z,4.6
2018-03-08T22:26:51.232Z,4.6
2018-03-08T22:27:41.281Z,4.6
2018-03-08T22:28:31.079Z,4.6
2018-03-08T22:29:21.125Z,4.6
2018-03-08T22:30:10.694Z,4.6
2018-03-08T22:31:01.540Z,4.6
2018-03-08T22:31:51.385Z,4.6
2018-03-08T22:32:41.629Z,4.6
2018-03-08T22:33:31.431Z,4.6
2018-03-08T22:34:21.470Z,4.6
2018-03-08T22:35:11.822Z,4.6
2018-03-08T22:36:01.612Z,4.6
2018-03-08T22:36:51.654Z,4.6
2018-03-08T22:37:42.005Z,4.6
2018-03-08T22:38:31.564Z,4.6
2018-03-08T22:39:22.109Z,4.6
2018-03-08T22:40:12.185Z,4.6
2018-03-08T22:41:01.830Z,4.6
2018-03-08T22:41:52.292Z,4.6
2018-03-08T22:42:42.359Z,4.6
2018-03-08T22:43:32.418Z,4.6
2018-03-08T22:44:21.683Z,4.6
2018-03-08T22:45:11.944Z,4.6
2018-03-08T22:46:02.283Z,4.6
2018-03-08T22:46:52.611Z,4.6
2018-03-08T22:47:42.410Z,4.6
2018-03-08T22:48:32.464Z,4.6
2018-03-08T22:49:22.509Z,4.6
2018-03-08T22:50:12.576Z,4.6
2018-03-08T22:51:02.631Z,4.6
2018-03-08T22:51:52.696Z,4.6
2018-03-08T22:52:43.019Z,4.6
2018-03-08T22:53:32.806Z,4.6
2018-03-08T22:54:23.146Z,4.6
2018-03-08T22:55:13.201Z,4.6
2018-03-08T22:56:02.988Z,4.6
2018-03-08T22:56:53.321Z,4.6
2018-03-08T22:57:43.373Z,4.6
2018-03-08T22:58:33.153Z,4.6
2018-03-08T22:59:23.490Z,4.6
2018-03-08T23:00:12.992Z,4.6
2018-03-08T23:01:03.601Z,4.6
2018-03-08T23:01:53.661Z,4.6
2018-03-08T23:02:43.727Z,4.6
2018-03-08T23:03:33.788Z,4.6
2018-03-08T23:04:23.863Z,4.6
2018-03-08T23:05:13.955Z,4.6
2018-03-08T23:06:03.953Z,4.6
2018-03-08T23:06:54.025Z,4.6
2018-03-08T23:07:44.067Z,4.6
2018-03-08T23:08:33.862Z,4.6
2018-03-08T23:09:23.902Z,4.6
2018-03-08T23:10:14.242Z,4.6
2018-03-08T23:11:04.322Z,4.6
2018-03-08T23:11:54.373Z,4.6
2018-03-08T23:12:44.139Z,4.6
2018-03-08T23:13:34.477Z,4.6
2018-03-08T23:14:24.544Z,4.6
2018-03-08T23:15:14.029Z,4.6
2018-03-08T23:16:04.662Z,4.6
2018-03-08T23:16:54.722Z,4.6
2018-03-08T23:17:44.762Z,4.6
2018-03-08T23:18:34.547Z,4.5
2018-03-08T23:19:24.894Z,4.5
2018-03-08T23:20:14.934Z,4.6
2018-03-08T23:21:04.996Z,4.6
2018-03-08T23:21:55.056Z,4.5
2018-03-08T23:22:45.115Z,4.5
2018-03-08T23:23:35.179Z,4.5
2018-03-08T23:24:25.227Z,4.5
2018-03-08T23:25:15.286Z,4.5
2018-03-08T23:26:05.052Z,4.5
2018-03-08T23:26:55.135Z,4.5
2018-03-08T23:27:45.183Z,4.5
2018-03-08T23:28:34.964Z,4.5
2018-03-08T23:29:25.298Z,4.4
2018-03-08T23:30:15.244Z,4.4
2018-03-08T23:31:05.710Z,4.5
2018-03-08T23:31:55.558Z,4.4
2018-03-08T23:32:45.841Z,4.4
2018-03-08T23:33:35.591Z,4.4
2018-03-08T23:34:25.688Z,4.4
2018-03-08T23:35:15.803Z,4.4
2018-03-08T23:36:06.044Z,4.4
2018-03-08T23:36:55.926Z,4.4